sensor_id;sensor_type;location;lat;lon;timestamp;pressure;altitude;pressure_sealevel;temperature;humidity
19811;BME280;10065;49.632;8.346;2023-05-17T00:02:12;101137.59;;;13.80;50.75
19811;BME280;10065;49.632;8.346;2023-05-17T00:04:41;101148.69;;;13.76;50.87
19811;BME280;10065;49.632;8.346;2023-05-17T00:07:10;101144.34;;;13.75;50.91
19811;BME280;10065;49.632;8.346;2023-05-17T00:09:38;101151.72;;;13.81;50.97
19811;BME280;10065;49.632;8.346;2023-05-17T00:12:06;101148.84;;;13.74;51.04
19811;BME280;10065;49.632;8.346;2023-05-17T00:14:34;101149.81;;;13.73;51.18
19811;BME280;10065;49.632;8.346;2023-05-17T00:17:01;101149.59;;;13.67;51.26
19811;BME280;10065;49.632;8.346;2023-05-17T00:19:29;101149.38;;;13.78;51.23
19811;BME280;10065;49.632;8.346;2023-05-17T00:21:58;101148.00;;;13.74;51.13
19811;BME280;10065;49.632;8.346;2023-05-17T00:24:26;101144.66;;;13.72;51.46
19811;BME280;10065;49.632;8.346;2023-05-17T00:26:54;101147.84;;;13.57;51.89
19811;BME280;10065;49.632;8.346;2023-05-17T00:29:22;101154.09;;;13.66;51.72
19811;BME280;10065;49.632;8.346;2023-05-17T00:31:49;101149.28;;;13.52;52.11
19811;BME280;10065;49.632;8.346;2023-05-17T00:34:17;101155.16;;;13.73;51.78
19811;BME280;10065;49.632;8.346;2023-05-17T00:36:45;101149.22;;;13.62;51.89
19811;BME280;10065;49.632;8.346;2023-05-17T00:39:14;101145.25;;;13.66;52.31
19811;BME280;10065;49.632;8.346;2023-05-17T00:41:42;101146.78;;;13.68;52.20
19811;BME280;10065;49.632;8.346;2023-05-17T00:44:10;101150.22;;;13.78;52.01
19811;BME280;10065;49.632;8.346;2023-05-17T00:46:38;101158.91;;;13.80;52.15
19811;BME280;10065;49.632;8.346;2023-05-17T00:49:06;101150.16;;;13.70;52.33
19811;BME280;10065;49.632;8.346;2023-05-17T00:51:36;101155.22;;;13.81;52.25
19811;BME280;10065;49.632;8.346;2023-05-17T00:54:04;101157.91;;;13.81;52.28
19811;BME280;10065;49.632;8.346;2023-05-17T00:56:33;101155.91;;;13.66;52.77
19811;BME280;10065;49.632;8.346;2023-05-17T00:59:03;101153.63;;;13.53;52.94
19811;BME280;10065;49.632;8.346;2023-05-17T01:01:31;101154.63;;;13.70;52.93
19811;BME280;10065;49.632;8.346;2023-05-17T01:04:00;101157.66;;;13.75;52.92
19811;BME280;10065;49.632;8.346;2023-05-17T01:06:28;101159.41;;;13.66;52.95
19811;BME280;10065;49.632;8.346;2023-05-17T01:08:56;101156.31;;;13.71;52.91
19811;BME280;10065;49.632;8.346;2023-05-17T01:11:30;101160.75;;;13.80;52.76
19811;BME280;10065;49.632;8.346;2023-05-17T01:14:11;101159.56;;;13.82;52.66
19811;BME280;10065;49.632;8.346;2023-05-17T01:16:48;101158.91;;;13.80;52.78
19811;BME280;10065;49.632;8.346;2023-05-17T01:19:32;101152.81;;;13.70;53.02
19811;BME280;10065;49.632;8.346;2023-05-17T01:22:12;101161.09;;;13.67;53.32
19811;BME280;10065;49.632;8.346;2023-05-17T01:24:49;101164.53;;;13.77;53.09
19811;BME280;10065;49.632;8.346;2023-05-17T01:27:20;101168.03;;;13.78;53.21
19811;BME280;10065;49.632;8.346;2023-05-17T01:29:53;101169.56;;;13.80;53.39
19811;BME280;10065;49.632;8.346;2023-05-17T01:32:23;101176.25;;;13.84;53.47
19811;BME280;10065;49.632;8.346;2023-05-17T01:34:51;101177.03;;;13.77;53.42
19811;BME280;10065;49.632;8.346;2023-05-17T01:37:19;101182.97;;;13.88;53.49
19811;BME280;10065;49.632;8.346;2023-05-17T01:39:47;101185.25;;;13.83;53.32
19811;BME280;10065;49.632;8.346;2023-05-17T01:42:21;101180.91;;;13.82;53.33
19811;BME280;10065;49.632;8.346;2023-05-17T01:44:57;101176.78;;;13.52;54.17
19811;BME280;10065;49.632;8.346;2023-05-17T01:47:31;101180.38;;;13.79;53.88
19811;BME280;10065;49.632;8.346;2023-05-17T01:50:02;101184.88;;;13.78;53.74
19811;BME280;10065;49.632;8.346;2023-05-17T01:52:37;101187.53;;;13.78;53.63
19811;BME280;10065;49.632;8.346;2023-05-17T01:55:09;101186.06;;;13.66;53.80
19811;BME280;10065;49.632;8.346;2023-05-17T01:57:44;101183.03;;;13.61;53.85
19811;BME280;10065;49.632;8.346;2023-05-17T02:00:16;101185.78;;;13.69;53.62
19811;BME280;10065;49.632;8.346;2023-05-17T02:02:44;101190.97;;;13.71;53.74
19811;BME280;10065;49.632;8.346;2023-05-17T02:05:15;101186.47;;;13.71;53.75
19811;BME280;10065;49.632;8.346;2023-05-17T02:07:43;101188.31;;;13.71;53.75
19811;BME280;10065;49.632;8.346;2023-05-17T02:10:11;101191.16;;;13.60;53.89
19811;BME280;10065;49.632;8.346;2023-05-17T02:12:39;101201.19;;;13.48;54.21
19811;BME280;10065;49.632;8.346;2023-05-17T02:15:09;101207.72;;;13.63;54.14
19811;BME280;10065;49.632;8.346;2023-05-17T02:17:37;101197.16;;;13.44;54.68
19811;BME280;10065;49.632;8.346;2023-05-17T02:20:07;101203.28;;;13.54;54.29
19811;BME280;10065;49.632;8.346;2023-05-17T02:22:37;101204.84;;;13.19;55.39
19811;BME280;10065;49.632;8.346;2023-05-17T02:25:06;101206.66;;;13.46;54.81
19811;BME280;10065;49.632;8.346;2023-05-17T02:27:34;101203.47;;;13.43;54.52
19811;BME280;10065;49.632;8.346;2023-05-17T02:30:02;101214.31;;;13.59;54.39
19811;BME280;10065;49.632;8.346;2023-05-17T02:32:32;101207.78;;;13.53;54.23
19811;BME280;10065;49.632;8.346;2023-05-17T02:35:00;101206.00;;;13.44;54.58
19811;BME280;10065;49.632;8.346;2023-05-17T02:37:27;101220.53;;;13.50;54.15
19811;BME280;10065;49.632;8.346;2023-05-17T02:39:55;101212.75;;;13.39;54.65
19811;BME280;10065;49.632;8.346;2023-05-17T02:42:23;101211.22;;;13.36;54.71
19811;BME280;10065;49.632;8.346;2023-05-17T02:44:51;101210.72;;;13.23;55.35
19811;BME280;10065;49.632;8.346;2023-05-17T02:47:21;101216.84;;;13.33;54.91
19811;BME280;10065;49.632;8.346;2023-05-17T02:49:50;101218.09;;;13.29;54.67
19811;BME280;10065;49.632;8.346;2023-05-17T02:52:18;101214.69;;;13.19;55.29
19811;BME280;10065;49.632;8.346;2023-05-17T02:54:46;101228.97;;;13.08;55.49
19811;BME280;10065;49.632;8.346;2023-05-17T02:57:14;101221.94;;;13.27;54.98
19811;BME280;10065;49.632;8.346;2023-05-17T02:59:42;101224.13;;;13.31;55.07
19811;BME280;10065;49.632;8.346;2023-05-17T03:02:09;101236.78;;;13.19;55.07
19811;BME280;10065;49.632;8.346;2023-05-17T03:04:37;101237.66;;;13.10;55.41
19811;BME280;10065;49.632;8.346;2023-05-17T03:07:06;101241.00;;;13.12;55.30
19811;BME280;10065;49.632;8.346;2023-05-17T03:09:34;101241.59;;;13.06;55.51
19811;BME280;10065;49.632;8.346;2023-05-17T03:12:03;101235.16;;;13.09;55.60
19811;BME280;10065;49.632;8.346;2023-05-17T03:14:31;101236.84;;;13.00;55.38
19811;BME280;10065;49.632;8.346;2023-05-17T03:16:58;101236.66;;;13.11;55.33
19811;BME280;10065;49.632;8.346;2023-05-17T03:19:26;101241.72;;;13.05;55.26
19811;BME280;10065;49.632;8.346;2023-05-17T03:21:54;101246.53;;;13.01;55.50
19811;BME280;10065;49.632;8.346;2023-05-17T03:24:23;101245.84;;;12.90;55.54
19811;BME280;10065;49.632;8.346;2023-05-17T03:26:51;101249.47;;;12.98;55.47
19811;BME280;10065;49.632;8.346;2023-05-17T03:29:18;101256.50;;;12.90;55.79
19811;BME280;10065;49.632;8.346;2023-05-17T03:31:46;101256.34;;;13.01;55.50
19811;BME280;10065;49.632;8.346;2023-05-17T03:34:14;101257.63;;;12.87;55.93
19811;BME280;10065;49.632;8.346;2023-05-17T03:36:42;101262.63;;;13.00;55.49
19811;BME280;10065;49.632;8.346;2023-05-17T03:39:09;101268.38;;;12.95;55.77
19811;BME280;10065;49.632;8.346;2023-05-17T03:41:39;101266.03;;;12.92;55.96
19811;BME280;10065;49.632;8.346;2023-05-17T03:44:07;101263.50;;;12.91;55.71
19811;BME280;10065;49.632;8.346;2023-05-17T03:46:35;101264.34;;;12.91;55.78
19811;BME280;10065;49.632;8.346;2023-05-17T03:49:03;101272.47;;;12.80;56.00
19811;BME280;10065;49.632;8.346;2023-05-17T03:51:30;101271.63;;;12.89;55.82
19811;BME280;10065;49.632;8.346;2023-05-17T03:53:59;101266.44;;;12.88;55.93
19811;BME280;10065;49.632;8.346;2023-05-17T03:56:27;101265.19;;;12.92;55.70
19811;BME280;10065;49.632;8.346;2023-05-17T03:58:56;101264.91;;;12.85;55.68
19811;BME280;10065;49.632;8.346;2023-05-17T04:01:24;101265.59;;;12.87;55.74
19811;BME280;10065;49.632;8.346;2023-05-17T04:03:52;101274.88;;;12.73;56.00
19811;BME280;10065;49.632;8.346;2023-05-17T04:06:20;101268.28;;;12.77;56.07
19811;BME280;10065;49.632;8.346;2023-05-17T04:08:48;101271.38;;;12.73;56.27
19811;BME280;10065;49.632;8.346;2023-05-17T04:11:16;101274.59;;;12.76;55.93
19811;BME280;10065;49.632;8.346;2023-05-17T04:13:49;101274.75;;;12.75;55.83
19811;BME280;10065;49.632;8.346;2023-05-17T04:16:18;101280.88;;;12.75;55.93
19811;BME280;10065;49.632;8.346;2023-05-17T04:18:46;101283.00;;;12.81;55.88
19811;BME280;10065;49.632;8.346;2023-05-17T04:21:18;101286.78;;;12.79;55.74
19811;BME280;10065;49.632;8.346;2023-05-17T04:23:46;101283.28;;;12.69;55.87
19811;BME280;10065;49.632;8.346;2023-05-17T04:26:13;101282.88;;;12.64;56.28
19811;BME280;10065;49.632;8.346;2023-05-17T04:28:41;101289.56;;;12.77;55.95
19811;BME280;10065;49.632;8.346;2023-05-17T04:31:09;101295.47;;;12.81;55.83
19811;BME280;10065;49.632;8.346;2023-05-17T04:33:41;101295.16;;;12.84;55.47
19811;BME280;10065;49.632;8.346;2023-05-17T04:36:09;101293.78;;;12.80;55.79
19811;BME280;10065;49.632;8.346;2023-05-17T04:38:37;101295.16;;;12.84;55.78
19811;BME280;10065;49.632;8.346;2023-05-17T04:41:05;101300.78;;;12.81;55.81
19811;BME280;10065;49.632;8.346;2023-05-17T04:43:34;101300.47;;;12.84;55.66
19811;BME280;10065;49.632;8.346;2023-05-17T04:46:02;101297.41;;;12.79;55.79
19811;BME280;10065;49.632;8.346;2023-05-17T04:48:31;101305.53;;;12.87;55.45
19811;BME280;10065;49.632;8.346;2023-05-17T04:51:01;101305.53;;;12.87;55.58
19811;BME280;10065;49.632;8.346;2023-05-17T04:53:30;101303.28;;;12.92;55.49
19811;BME280;10065;49.632;8.346;2023-05-17T04:55:58;101309.47;;;12.83;55.78
19811;BME280;10065;49.632;8.346;2023-05-17T04:58:26;101319.53;;;12.89;55.80
19811;BME280;10065;49.632;8.346;2023-05-17T05:00:54;101319.97;;;12.85;55.91
19811;BME280;10065;49.632;8.346;2023-05-17T05:03:22;101323.44;;;12.95;55.75
19811;BME280;10065;49.632;8.346;2023-05-17T05:05:49;101323.03;;;12.99;55.54
19811;BME280;10065;49.632;8.346;2023-05-17T05:08:18;101327.94;;;12.94;55.78
19811;BME280;10065;49.632;8.346;2023-05-17T05:10:46;101329.34;;;12.98;55.74
19811;BME280;10065;49.632;8.346;2023-05-17T05:13:14;101330.75;;;12.93;56.45
19811;BME280;10065;49.632;8.346;2023-05-17T05:15:42;101339.88;;;12.80;56.45
19811;BME280;10065;49.632;8.346;2023-05-17T05:18:10;101342.78;;;13.06;56.07
19811;BME280;10065;49.632;8.346;2023-05-17T05:20:38;101345.16;;;13.09;55.83
19811;BME280;10065;49.632;8.346;2023-05-17T05:23:05;101349.22;;;12.94;56.34
19811;BME280;10065;49.632;8.346;2023-05-17T05:25:36;101350.66;;;13.17;55.50
19811;BME280;10065;49.632;8.346;2023-05-17T05:28:04;101362.97;;;13.18;55.90
19811;BME280;10065;49.632;8.346;2023-05-17T05:30:32;101363.78;;;13.29;55.50
19811;BME280;10065;49.632;8.346;2023-05-17T05:33:00;101367.13;;;13.31;55.57
19811;BME280;10065;49.632;8.346;2023-05-17T05:35:28;101360.81;;;13.32;55.77
19811;BME280;10065;49.632;8.346;2023-05-17T05:37:57;101374.25;;;13.40;55.51
19811;BME280;10065;49.632;8.346;2023-05-17T05:40:24;101373.44;;;13.39;55.33
19811;BME280;10065;49.632;8.346;2023-05-17T05:42:54;101372.47;;;13.31;55.75
19811;BME280;10065;49.632;8.346;2023-05-17T05:45:22;101370.34;;;13.44;55.86
19811;BME280;10065;49.632;8.346;2023-05-17T05:47:49;101370.28;;;13.63;55.42
19811;BME280;10065;49.632;8.346;2023-05-17T05:50:17;101373.94;;;13.62;55.30
19811;BME280;10065;49.632;8.346;2023-05-17T05:52:45;101368.19;;;13.57;55.54
19811;BME280;10065;49.632;8.346;2023-05-17T05:55:13;101363.94;;;13.64;55.13
19811;BME280;10065;49.632;8.346;2023-05-17T05:57:41;101374.84;;;13.80;54.47
19811;BME280;10065;49.632;8.346;2023-05-17T06:00:11;101378.31;;;13.81;54.33
19811;BME280;10065;49.632;8.346;2023-05-17T06:02:39;101379.25;;;13.62;54.79
19811;BME280;10065;49.632;8.346;2023-05-17T06:05:07;101380.16;;;13.80;54.66
19811;BME280;10065;49.632;8.346;2023-05-17T06:07:35;101381.81;;;13.81;54.46
19811;BME280;10065;49.632;8.346;2023-05-17T06:10:03;101384.06;;;13.86;54.26
19811;BME280;10065;49.632;8.346;2023-05-17T06:12:31;101387.69;;;13.94;54.31
19811;BME280;10065;49.632;8.346;2023-05-17T06:14:59;101388.63;;;14.03;54.24
19811;BME280;10065;49.632;8.346;2023-05-17T06:17:28;101391.53;;;14.10;54.10
19811;BME280;10065;49.632;8.346;2023-05-17T06:19:56;101399.38;;;14.11;53.85
19811;BME280;10065;49.632;8.346;2023-05-17T06:22:24;101400.06;;;14.13;53.48
19811;BME280;10065;49.632;8.346;2023-05-17T06:24:51;101393.44;;;14.17;54.03
19811;BME280;10065;49.632;8.346;2023-05-17T06:27:19;101404.94;;;14.18;54.56
19811;BME280;10065;49.632;8.346;2023-05-17T06:29:47;101403.34;;;14.25;54.60
19811;BME280;10065;49.632;8.346;2023-05-17T06:32:15;101400.13;;;14.31;54.60
19811;BME280;10065;49.632;8.346;2023-05-17T06:34:44;101414.22;;;14.23;54.64
19811;BME280;10065;49.632;8.346;2023-05-17T06:37:12;101415.03;;;14.24;54.57
19811;BME280;10065;49.632;8.346;2023-05-17T06:39:39;101401.34;;;14.37;54.57
19811;BME280;10065;49.632;8.346;2023-05-17T06:42:10;101403.13;;;14.46;54.47
19811;BME280;10065;49.632;8.346;2023-05-17T06:44:38;101408.75;;;14.43;54.38
19811;BME280;10065;49.632;8.346;2023-05-17T06:47:06;101412.91;;;14.55;56.14
19811;BME280;10065;49.632;8.346;2023-05-17T06:49:33;101410.31;;;14.63;53.76
19811;BME280;10065;49.632;8.346;2023-05-17T06:52:03;101413.63;;;14.75;53.03
19811;BME280;10065;49.632;8.346;2023-05-17T06:54:31;101422.31;;;14.77;53.45
19811;BME280;10065;49.632;8.346;2023-05-17T06:56:59;101417.28;;;14.74;53.22
19811;BME280;10065;49.632;8.346;2023-05-17T06:59:27;101418.88;;;14.84;52.40
19811;BME280;10065;49.632;8.346;2023-05-17T07:01:55;101418.19;;;14.82;52.68
19811;BME280;10065;49.632;8.346;2023-05-17T07:04:23;101422.69;;;14.82;53.00
19811;BME280;10065;49.632;8.346;2023-05-17T07:06:51;101420.16;;;14.98;53.23
19811;BME280;10065;49.632;8.346;2023-05-17T07:09:20;101419.88;;;15.01;52.52
19811;BME280;10065;49.632;8.346;2023-05-17T07:11:48;101426.75;;;15.03;51.68
19811;BME280;10065;49.632;8.346;2023-05-17T07:14:16;101425.50;;;14.98;52.16
19811;BME280;10065;49.632;8.346;2023-05-17T07:16:43;101435.34;;;14.97;51.78
19811;BME280;10065;49.632;8.346;2023-05-17T07:19:11;101435.19;;;14.99;51.15
19811;BME280;10065;49.632;8.346;2023-05-17T07:21:39;101440.38;;;15.00;51.44
19811;BME280;10065;49.632;8.346;2023-05-17T07:24:07;101443.81;;;14.93;52.15
19811;BME280;10065;49.632;8.346;2023-05-17T07:26:36;101440.91;;;15.04;52.15
19811;BME280;10065;49.632;8.346;2023-05-17T07:29:04;101434.97;;;15.10;51.95
19811;BME280;10065;49.632;8.346;2023-05-17T07:31:31;101439.75;;;15.24;51.73
19811;BME280;10065;49.632;8.346;2023-05-17T07:34:00;101438.47;;;15.28;51.75
19811;BME280;10065;49.632;8.346;2023-05-17T07:36:28;101434.44;;;15.50;50.94
19811;BME280;10065;49.632;8.346;2023-05-17T07:38:56;101433.00;;;15.56;50.90
19811;BME280;10065;49.632;8.346;2023-05-17T07:41:24;101439.75;;;15.68;50.21
19811;BME280;10065;49.632;8.346;2023-05-17T07:43:53;101436.09;;;15.69;50.02
19811;BME280;10065;49.632;8.346;2023-05-17T07:46:21;101430.47;;;15.80;49.46
19811;BME280;10065;49.632;8.346;2023-05-17T07:48:49;101431.56;;;15.95;49.11
19811;BME280;10065;49.632;8.346;2023-05-17T07:51:17;101432.59;;;16.02;49.33
19811;BME280;10065;49.632;8.346;2023-05-17T07:53:45;101434.00;;;16.14;48.75
19811;BME280;10065;49.632;8.346;2023-05-17T07:56:12;101426.19;;;16.29;48.05
19811;BME280;10065;49.632;8.346;2023-05-17T07:58:40;101433.38;;;16.37;47.59
19811;BME280;10065;49.632;8.346;2023-05-17T08:01:09;101432.06;;;16.41;47.73
19811;BME280;10065;49.632;8.346;2023-05-17T08:03:37;101428.06;;;16.45;47.27
19811;BME280;10065;49.632;8.346;2023-05-17T08:06:05;101428.72;;;16.39;47.39
19811;BME280;10065;49.632;8.346;2023-05-17T08:08:33;101430.25;;;16.49;46.99
19811;BME280;10065;49.632;8.346;2023-05-17T08:11:00;101437.28;;;16.50;46.96
19811;BME280;10065;49.632;8.346;2023-05-17T08:13:28;101439.28;;;16.48;46.82
19811;BME280;10065;49.632;8.346;2023-05-17T08:15:56;101439.44;;;16.39;46.97
19811;BME280;10065;49.632;8.346;2023-05-17T08:18:41;101436.69;;;16.23;46.87
19811;BME280;10065;49.632;8.346;2023-05-17T08:21:09;101432.31;;;16.13;46.55
19811;BME280;10065;49.632;8.346;2023-05-17T08:23:39;101436.63;;;16.06;47.02
19811;BME280;10065;49.632;8.346;2023-05-17T08:26:07;101433.91;;;15.98;47.18
19811;BME280;10065;49.632;8.346;2023-05-17T08:28:35;101434.59;;;16.00;47.37
19811;BME280;10065;49.632;8.346;2023-05-17T08:31:04;101429.97;;;16.18;47.33
19811;BME280;10065;49.632;8.346;2023-05-17T08:33:32;101422.06;;;16.43;46.79
19811;BME280;10065;49.632;8.346;2023-05-17T08:36:02;101430.47;;;16.64;46.30
19811;BME280;10065;49.632;8.346;2023-05-17T08:38:33;101429.50;;;16.89;46.25
19811;BME280;10065;49.632;8.346;2023-05-17T08:41:01;101425.84;;;17.07;44.96
19811;BME280;10065;49.632;8.346;2023-05-17T08:43:29;101426.53;;;17.17;44.60
19811;BME280;10065;49.632;8.346;2023-05-17T08:45:57;101423.00;;;17.16;43.65
19811;BME280;10065;49.632;8.346;2023-05-17T08:48:25;101422.16;;;17.16;43.76
19811;BME280;10065;49.632;8.346;2023-05-17T08:50:57;101425.69;;;17.33;43.51
19811;BME280;10065;49.632;8.346;2023-05-17T08:53:27;101427.50;;;17.48;43.87
19811;BME280;10065;49.632;8.346;2023-05-17T08:55:57;101426.63;;;17.80;44.01
19811;BME280;10065;49.632;8.346;2023-05-17T08:58:27;101415.38;;;17.93;42.85
19811;BME280;10065;49.632;8.346;2023-05-17T09:01:17;101425.94;;;17.86;42.61
19811;BME280;10065;49.632;8.346;2023-05-17T09:03:46;101421.13;;;17.74;43.31
19811;BME280;10065;49.632;8.346;2023-05-17T09:06:15;101419.09;;;17.59;43.85
19811;BME280;10065;49.632;8.346;2023-05-17T09:08:46;101421.16;;;17.41;43.38
19811;BME280;10065;49.632;8.346;2023-05-17T09:11:23;101425.03;;;17.14;43.31
19811;BME280;10065;49.632;8.346;2023-05-17T09:13:51;101430.38;;;17.06;43.73
19811;BME280;10065;49.632;8.346;2023-05-17T09:16:19;101422.00;;;16.93;43.38
19811;BME280;10065;49.632;8.346;2023-05-17T09:18:53;101417.28;;;16.71;44.32
19811;BME280;10065;49.632;8.346;2023-05-17T09:21:21;101422.81;;;16.61;44.56
19811;BME280;10065;49.632;8.346;2023-05-17T09:23:51;101420.88;;;16.53;44.91
19811;BME280;10065;49.632;8.346;2023-05-17T09:26:38;101419.03;;;16.46;45.49
19811;BME280;10065;49.632;8.346;2023-05-17T09:29:08;101420.78;;;16.63;45.17
19811;BME280;10065;49.632;8.346;2023-05-17T09:31:36;101418.47;;;16.92;45.29
19811;BME280;10065;49.632;8.346;2023-05-17T09:34:04;101421.66;;;17.28;44.68
19811;BME280;10065;49.632;8.346;2023-05-17T09:36:35;101425.00;;;17.47;43.43
19811;BME280;10065;49.632;8.346;2023-05-17T09:39:05;101417.72;;;17.88;42.81
19811;BME280;10065;49.632;8.346;2023-05-17T09:41:41;101423.31;;;18.17;42.82
19811;BME280;10065;49.632;8.346;2023-05-17T09:44:11;101415.13;;;18.41;42.11
19811;BME280;10065;49.632;8.346;2023-05-17T09:46:41;101418.41;;;18.60;41.74
19811;BME280;10065;49.632;8.346;2023-05-17T09:49:09;101413.22;;;18.58;40.70
19811;BME280;10065;49.632;8.346;2023-05-17T09:51:39;101422.91;;;18.36;40.23
19811;BME280;10065;49.632;8.346;2023-05-17T09:54:09;101424.84;;;18.12;41.20
19811;BME280;10065;49.632;8.346;2023-05-17T09:56:37;101419.72;;;17.94;42.14
19811;BME280;10065;49.632;8.346;2023-05-17T09:59:10;101422.44;;;17.78;42.48
19811;BME280;10065;49.632;8.346;2023-05-17T10:01:39;101424.31;;;17.69;42.41
19811;BME280;10065;49.632;8.346;2023-05-17T10:04:09;101420.78;;;17.60;43.42
19811;BME280;10065;49.632;8.346;2023-05-17T10:06:38;101423.13;;;17.55;43.74
19811;BME280;10065;49.632;8.346;2023-05-17T10:09:12;101419.78;;;17.70;44.10
19811;BME280;10065;49.632;8.346;2023-05-17T10:11:45;101426.47;;;17.74;43.65
19811;BME280;10065;49.632;8.346;2023-05-17T10:14:18;101420.97;;;17.67;43.39
19811;BME280;10065;49.632;8.346;2023-05-17T10:16:49;101419.09;;;17.51;43.92
19811;BME280;10065;49.632;8.346;2023-05-17T10:19:19;101425.00;;;17.47;43.75
19811;BME280;10065;49.632;8.346;2023-05-17T10:21:49;101417.66;;;17.33;43.69
19811;BME280;10065;49.632;8.346;2023-05-17T10:24:19;101406.75;;;17.18;42.95
19811;BME280;10065;49.632;8.346;2023-05-17T10:26:48;101415.47;;;17.12;43.52
19811;BME280;10065;49.632;8.346;2023-05-17T10:29:16;101414.63;;;17.03;43.45
19811;BME280;10065;49.632;8.346;2023-05-17T10:31:46;101408.09;;;16.98;43.83
19811;BME280;10065;49.632;8.346;2023-05-17T10:34:17;101417.31;;;16.95;44.13
19811;BME280;10065;49.632;8.346;2023-05-17T10:36:45;101408.28;;;16.96;44.86
19811;BME280;10065;49.632;8.346;2023-05-17T10:39:16;101413.13;;;17.17;44.00
19811;BME280;10065;49.632;8.346;2023-05-17T10:41:47;101413.59;;;17.53;42.52
19811;BME280;10065;49.632;8.346;2023-05-17T10:44:18;101406.81;;;17.89;41.95
19811;BME280;10065;49.632;8.346;2023-05-17T10:46:57;101394.47;;;18.19;41.92
19811;BME280;10065;49.632;8.346;2023-05-17T10:49:25;101391.81;;;18.42;40.38
19811;BME280;10065;49.632;8.346;2023-05-17T10:51:55;101390.38;;;18.62;40.31
19811;BME280;10065;49.632;8.346;2023-05-17T10:54:33;101388.81;;;18.68;40.22
19811;BME280;10065;49.632;8.346;2023-05-17T10:57:03;101392.25;;;18.54;40.59
19811;BME280;10065;49.632;8.346;2023-05-17T10:59:34;101394.97;;;18.46;39.96
19811;BME280;10065;49.632;8.346;2023-05-17T11:02:03;101403.16;;;18.21;40.10
19811;BME280;10065;49.632;8.346;2023-05-17T11:04:32;101403.22;;;18.05;40.00
19811;BME280;10065;49.632;8.346;2023-05-17T11:07:20;101400.13;;;17.77;40.63
19811;BME280;10065;49.632;8.346;2023-05-17T11:09:51;101399.28;;;17.77;42.50
19811;BME280;10065;49.632;8.346;2023-05-17T11:12:30;101394.78;;;17.61;41.80
19811;BME280;10065;49.632;8.346;2023-05-17T11:15:06;101392.13;;;17.53;41.03
19811;BME280;10065;49.632;8.346;2023-05-17T11:17:35;101399.72;;;17.41;42.56
19811;BME280;10065;49.632;8.346;2023-05-17T11:20:28;101399.69;;;17.33;42.25
19811;BME280;10065;49.632;8.346;2023-05-17T11:23:00;101396.34;;;17.39;43.22
19811;BME280;10065;49.632;8.346;2023-05-17T11:25:30;101399.06;;;17.31;43.10
19811;BME280;10065;49.632;8.346;2023-05-17T11:28:07;101402.91;;;17.28;43.00
19811;BME280;10065;49.632;8.346;2023-05-17T11:30:40;101395.34;;;17.24;42.24
19811;BME280;10065;49.632;8.346;2023-05-17T11:33:08;101406.06;;;17.24;41.66
19811;BME280;10065;49.632;8.346;2023-05-17T11:35:53;101399.91;;;17.23;42.22
19811;BME280;10065;49.632;8.346;2023-05-17T11:38:22;101408.44;;;17.19;42.91
19811;BME280;10065;49.632;8.346;2023-05-17T11:40:52;101406.06;;;17.24;42.80
19811;BME280;10065;49.632;8.346;2023-05-17T11:43:22;101395.53;;;17.22;41.67
19811;BME280;10065;49.632;8.346;2023-05-17T11:45:52;101391.84;;;17.23;42.39
19811;BME280;10065;49.632;8.346;2023-05-17T11:48:21;101399.56;;;17.18;42.54
19811;BME280;10065;49.632;8.346;2023-05-17T11:50:51;101398.03;;;17.24;43.02
19811;BME280;10065;49.632;8.346;2023-05-17T11:53:19;101396.03;;;17.26;43.01
19811;BME280;10065;49.632;8.346;2023-05-17T11:55:48;101399.06;;;17.31;43.04
19811;BME280;10065;49.632;8.346;2023-05-17T11:58:18;101393.34;;;17.34;42.27
19811;BME280;10065;49.632;8.346;2023-05-17T12:00:51;101390.31;;;17.45;42.10
19811;BME280;10065;49.632;8.346;2023-05-17T12:03:21;101381.91;;;17.64;41.67
19811;BME280;10065;49.632;8.346;2023-05-17T12:05:52;101381.16;;;17.87;40.79
19811;BME280;10065;49.632;8.346;2023-05-17T12:08:27;101383.16;;;17.93;41.03
19811;BME280;10065;49.632;8.346;2023-05-17T12:10:55;101377.78;;;17.93;41.38
19811;BME280;10065;49.632;8.346;2023-05-17T12:13:27;101376.13;;;17.92;41.18
19811;BME280;10065;49.632;8.346;2023-05-17T12:15:58;101375.75;;;17.95;40.31
19811;BME280;10065;49.632;8.346;2023-05-17T12:18:34;101367.06;;;17.93;41.46
19811;BME280;10065;49.632;8.346;2023-05-17T12:21:04;101367.91;;;17.93;41.66
19811;BME280;10065;49.632;8.346;2023-05-17T12:23:33;101363.72;;;17.91;41.30
19811;BME280;10065;49.632;8.346;2023-05-17T12:26:05;101371.44;;;17.94;40.29
19811;BME280;10065;49.632;8.346;2023-05-17T12:28:34;101369.34;;;18.04;41.95
19811;BME280;10065;49.632;8.346;2023-05-17T12:31:05;101366.31;;;18.07;41.29
19811;BME280;10065;49.632;8.346;2023-05-17T12:33:35;101367.66;;;18.11;40.12
19811;BME280;10065;49.632;8.346;2023-05-17T12:36:05;101365.44;;;18.15;39.42
19811;BME280;10065;49.632;8.346;2023-05-17T12:38:35;101363.91;;;18.20;39.68
19811;BME280;10065;49.632;8.346;2023-05-17T12:41:05;101354.47;;;18.24;40.65
19811;BME280;10065;49.632;8.346;2023-05-17T12:43:34;101355.44;;;18.31;40.28
19811;BME280;10065;49.632;8.346;2023-05-17T12:46:05;101356.09;;;18.33;41.26
19811;BME280;10065;49.632;8.346;2023-05-17T12:48:34;101350.03;;;18.39;40.15
19811;BME280;10065;49.632;8.346;2023-05-17T12:51:06;101340.28;;;18.38;39.57
19811;BME280;10065;49.632;8.346;2023-05-17T12:53:39;101341.63;;;18.42;39.25
19811;BME280;10065;49.632;8.346;2023-05-17T12:56:07;101346.94;;;18.51;40.02
19811;BME280;10065;49.632;8.346;2023-05-17T12:58:35;101335.50;;;18.57;38.51
19811;BME280;10065;49.632;8.346;2023-05-17T13:01:04;101339.50;;;18.61;38.15
19811;BME280;10065;49.632;8.346;2023-05-17T13:03:36;101334.25;;;18.67;38.18